To NAV CANADA Home Page Login to a new session Search on AWWS site Disclaimer Vers la page française équivalente Tips FAQ What's new on the site To the Forecasts and Observations / NOTAM section To "File a Flight Plan" website Publications and other links Update of the User's profile FIC Telephone Numbers My Weather Data Folder Route Weather Data Regional Weather Data Local Weather Data To the Forecasts and Observations / NOTAM section
Request Generated 10/19/2018 at 15:27:13 UTC . Weather information available at that time is displayed.

METAR/TAF

PORTAGE LA PRAIRIE/SOUTHPORT/MB    

METAR CYPG 191500Z 32017G23KT 15SM FEW050 09/01 A2989 RMK SC1 SLP127=
METAR CYPG 191400Z 30015G20KT 15SM FEW050 07/00 A2987 RMK SC1 SLP121=
METAR CYPG 191300Z 30012KT 15SM FEW064 FEW100 SCT240 08/M00 A2983 RMK SC1AC1CI2 SLP107=

TAF CYPG 191215Z 1912/1924 31010G20KT P6SM FEW100 SCT240
BECMG 1913/1915 31018G28KT
FM191800 32018G28KT P6SM BKN030
FM192100 33015G25KT 5SM -SHRA BR BKN015 OVC030 TEMPO 1921/1924
P6SM NSW SCT015 OVC030
RMK NXT FCST BY 191800Z=
Your time UTC time
Weather data provided by Environment Canada and NAV CANADA